sensor_id;sensor_type;location;lat;lon;timestamp;pressure;altitude;pressure_sealevel;temperature;humidity
29045;BME280;16133;49.486;12.176;2023-07-08T00:00:42;97734.81;;;12.07;100.00
29045;BME280;16133;49.486;12.176;2023-07-08T00:03:08;97732.50;;;12.04;100.00
29045;BME280;16133;49.486;12.176;2023-07-08T00:05:34;97732.69;;;12.03;100.00
29045;BME280;16133;49.486;12.176;2023-07-08T00:07:59;97738.38;;;12.00;100.00
29045;BME280;16133;49.486;12.176;2023-07-08T00:10:27;97748.34;;;11.97;100.00
29045;BME280;16133;49.486;12.176;2023-07-08T00:12:54;97742.75;;;11.92;100.00
29045;BME280;16133;49.486;12.176;2023-07-08T00:15:25;97740.16;;;11.84;100.00
29045;BME280;16133;49.486;12.176;2023-07-08T00:17:51;97731.91;;;11.79;100.00
29045;BME280;16133;49.486;12.176;2023-07-08T00:20:37;97732.59;;;11.73;100.00
29045;BME280;16133;49.486;12.176;2023-07-08T00:23:04;97736.59;;;11.69;100.00
29045;BME280;16133;49.486;12.176;2023-07-08T00:25:30;97724.03;;;11.63;100.00
29045;BME280;16133;49.486;12.176;2023-07-08T00:27:56;97731.53;;;11.60;100.00
29045;BME280;16133;49.486;12.176;2023-07-08T00:30:30;97729.03;;;11.58;100.00
29045;BME280;16133;49.486;12.176;2023-07-08T00:32:56;97728.22;;;11.58;100.00
29045;BME280;16133;49.486;12.176;2023-07-08T00:35:28;97733.34;;;11.59;100.00
29045;BME280;16133;49.486;12.176;2023-07-08T00:37:55;97735.53;;;11.56;100.00
29045;BME280;16133;49.486;12.176;2023-07-08T00:40:28;97737.91;;;11.50;100.00
29045;BME280;16133;49.486;12.176;2023-07-08T00:42:54;97732.13;;;11.47;100.00
29045;BME280;16133;49.486;12.176;2023-07-08T00:45:49;97733.31;;;11.44;100.00
29045;BME280;16133;49.486;12.176;2023-07-08T00:48:22;97727.53;;;11.41;100.00
29045;BME280;16133;49.486;12.176;2023-07-08T00:50:48;97737.16;;;11.42;100.00
29045;BME280;16133;49.486;12.176;2023-07-08T00:53:33;97736.13;;;11.43;100.00
29045;BME280;16133;49.486;12.176;2023-07-08T00:58:51;97748.78;;;11.41;100.00
29045;BME280;16133;49.486;12.176;2023-07-08T01:01:19;97745.66;;;11.37;100.00
29045;BME280;16133;49.486;12.176;2023-07-08T01:03:49;97742.53;;;11.34;100.00
29045;BME280;16133;49.486;12.176;2023-07-08T01:06:16;97742.03;;;11.30;100.00
29045;BME280;16133;49.486;12.176;2023-07-08T01:08:41;97742.38;;;11.27;100.00
29045;BME280;16133;49.486;12.176;2023-07-08T01:11:07;97737.63;;;11.23;100.00
29045;BME280;16133;49.486;12.176;2023-07-08T01:13:40;97723.81;;;11.19;100.00
29045;BME280;16133;49.486;12.176;2023-07-08T01:16:07;97734.81;;;11.16;100.00
29045;BME280;16133;49.486;12.176;2023-07-08T01:18:34;97734.34;;;11.13;100.00
29045;BME280;16133;49.486;12.176;2023-07-08T01:21:02;97747.13;;;11.09;100.00
29045;BME280;16133;49.486;12.176;2023-07-08T01:23:32;97736.38;;;11.02;100.00
29045;BME280;16133;49.486;12.176;2023-07-08T01:25:59;97726.53;;;10.88;100.00
29045;BME280;16133;49.486;12.176;2023-07-08T01:28:26;97734.41;;;10.96;100.00
29045;BME280;16133;49.486;12.176;2023-07-08T01:30:52;97733.94;;;10.93;100.00
29045;BME280;16133;49.486;12.176;2023-07-08T01:33:20;97743.25;;;10.89;100.00
29045;BME280;16133;49.486;12.176;2023-07-08T01:35:46;97739.97;;;10.87;100.00
29045;BME280;16133;49.486;12.176;2023-07-08T01:38:16;97733.97;;;10.85;100.00
29045;BME280;16133;49.486;12.176;2023-07-08T01:40:49;97726.19;;;10.83;100.00
29045;BME280;16133;49.486;12.176;2023-07-08T01:43:15;97726.56;;;10.80;100.00
29045;BME280;16133;49.486;12.176;2023-07-08T01:45:41;97726.56;;;10.80;100.00
29045;BME280;16133;49.486;12.176;2023-07-08T01:48:10;97726.56;;;10.80;100.00
29045;BME280;16133;49.486;12.176;2023-07-08T01:50:38;97726.72;;;10.79;100.00
29045;BME280;16133;49.486;12.176;2023-07-08T01:53:11;97730.84;;;10.81;100.00
29045;BME280;16133;49.486;12.176;2023-07-08T01:55:38;97722.25;;;10.79;100.00
29045;BME280;16133;49.486;12.176;2023-07-08T01:58:04;97716.94;;;10.79;100.00
29045;BME280;16133;49.486;12.176;2023-07-08T02:00:29;97720.41;;;10.80;100.00
29045;BME280;16133;49.486;12.176;2023-07-08T02:02:54;97712.63;;;10.78;100.00
29045;BME280;16133;49.486;12.176;2023-07-08T02:05:20;97709.31;;;10.76;100.00
29045;BME280;16133;49.486;12.176;2023-07-08T02:07:45;97706.19;;;10.73;100.00
29045;BME280;16133;49.486;12.176;2023-07-08T02:10:11;97703.69;;;10.71;100.00
29045;BME280;16133;49.486;12.176;2023-07-08T02:12:36;97700.41;;;10.69;100.00
29045;BME280;16133;49.486;12.176;2023-07-08T02:15:02;97697.91;;;10.68;100.00
29045;BME280;16133;49.486;12.176;2023-07-08T02:17:28;97689.81;;;10.61;100.00
29045;BME280;16133;49.486;12.176;2023-07-08T02:19:54;97693.13;;;10.63;100.00
29045;BME280;16133;49.486;12.176;2023-07-08T02:22:20;97689.47;;;10.64;100.00
29045;BME280;16133;49.486;12.176;2023-07-08T02:24:45;97692.94;;;10.65;100.00
29045;BME280;16133;49.486;12.176;2023-07-08T02:27:11;97692.94;;;10.65;100.00
29045;BME280;16133;49.486;12.176;2023-07-08T02:29:36;97691.28;;;10.64;100.00
29045;BME280;16133;49.486;12.176;2023-07-08T02:32:03;97701.06;;;10.63;100.00
29045;BME280;16133;49.486;12.176;2023-07-08T02:34:29;97689.81;;;10.61;100.00
29045;BME280;16133;49.486;12.176;2023-07-08T02:36:54;97689.16;;;10.59;100.00
29045;BME280;16133;49.486;12.176;2023-07-08T02:42:43;97689.66;;;10.54;100.00
29045;BME280;16133;49.486;12.176;2023-07-08T02:45:08;97693.47;;;10.60;100.00
29045;BME280;16133;49.486;12.176;2023-07-08T02:47:34;97703.72;;;10.63;100.00
29045;BME280;16133;49.486;12.176;2023-07-08T02:49:59;97693.31;;;10.62;100.00
29045;BME280;16133;49.486;12.176;2023-07-08T02:52:25;97702.03;;;10.70;100.00
29045;BME280;16133;49.486;12.176;2023-07-08T02:54:50;97713.13;;;10.74;100.00
29045;BME280;16133;49.486;12.176;2023-07-08T02:57:15;97707.66;;;10.75;100.00
29045;BME280;16133;49.486;12.176;2023-07-08T02:59:40;97707.97;;;10.80;100.00
29045;BME280;16133;49.486;12.176;2023-07-08T03:02:06;97706.16;;;10.81;100.00
29045;BME280;16133;49.486;12.176;2023-07-08T03:04:31;97712.94;;;10.83;100.00
29045;BME280;16133;49.486;12.176;2023-07-08T03:06:57;97706.63;;;10.84;100.00
29045;BME280;16133;49.486;12.176;2023-07-08T03:09:22;97717.72;;;10.88;100.00
29045;BME280;16133;49.486;12.176;2023-07-08T03:11:47;97708.94;;;10.87;100.00
29045;BME280;16133;49.486;12.176;2023-07-08T03:14:13;97708.09;;;10.87;100.00
29045;BME280;16133;49.486;12.176;2023-07-08T03:16:38;97709.09;;;10.86;100.00
29045;BME280;16133;49.486;12.176;2023-07-08T03:19:03;97704.78;;;10.85;100.00
29045;BME280;16133;49.486;12.176;2023-07-08T03:21:30;97700.97;;;10.87;100.00
29045;BME280;16133;49.486;12.176;2023-07-08T03:23:56;97714.41;;;10.86;100.00
29045;BME280;16133;49.486;12.176;2023-07-08T03:26:23;97717.06;;;10.86;100.00
29045;BME280;16133;49.486;12.176;2023-07-08T03:28:50;97709.56;;;10.89;100.00
29045;BME280;16133;49.486;12.176;2023-07-08T03:31:15;97711.59;;;10.87;100.00
29045;BME280;16133;49.486;12.176;2023-07-08T03:33:41;97708.94;;;10.87;100.00
29045;BME280;16133;49.486;12.176;2023-07-08T03:36:18;97714.03;;;10.89;100.00
29045;BME280;16133;49.486;12.176;2023-07-08T03:38:57;97714.03;;;10.89;100.00
29045;BME280;16133;49.486;12.176;2023-07-08T03:41:23;97722.84;;;10.89;100.00
29045;BME280;16133;49.486;12.176;2023-07-08T03:43:49;97723.66;;;10.90;100.00
29045;BME280;16133;49.486;12.176;2023-07-08T03:46:16;97726.16;;;10.91;100.00
29045;BME280;16133;49.486;12.176;2023-07-08T03:48:42;97727.47;;;10.95;100.00
29045;BME280;16133;49.486;12.176;2023-07-08T03:51:20;97724.47;;;10.98;100.00
29045;BME280;16133;49.486;12.176;2023-07-08T03:53:46;97734.72;;;11.01;100.00
29045;BME280;16133;49.486;12.176;2023-07-08T03:56:13;97737.22;;;11.03;100.00
29045;BME280;16133;49.486;12.176;2023-07-08T03:58:38;97741.34;;;11.06;100.00
29045;BME280;16133;49.486;12.176;2023-07-08T04:01:04;97742.19;;;11.06;100.00
29045;BME280;16133;49.486;12.176;2023-07-08T04:03:29;97736.50;;;11.09;100.00
29045;BME280;16133;49.486;12.176;2023-07-08T04:05:55;97739.84;;;11.11;100.00
29045;BME280;16133;49.486;12.176;2023-07-08T04:08:20;97735.00;;;11.15;100.00
29045;BME280;16133;49.486;12.176;2023-07-08T04:10:46;97730.31;;;11.17;100.00
29045;BME280;16133;49.486;12.176;2023-07-08T04:13:11;97737.63;;;11.23;100.00
29045;BME280;16133;49.486;12.176;2023-07-08T04:15:37;97722.66;;;11.22;100.00
29045;BME280;16133;49.486;12.176;2023-07-08T04:18:02;97727.94;;;11.30;100.00
29045;BME280;16133;49.486;12.176;2023-07-08T04:20:28;97739.44;;;11.45;100.00
29045;BME280;16133;49.486;12.176;2023-07-08T04:22:54;97747.00;;;11.56;100.00
29045;BME280;16133;49.486;12.176;2023-07-08T04:25:19;97746.59;;;11.67;100.00
29045;BME280;16133;49.486;12.176;2023-07-08T04:27:44;97742.69;;;11.78;100.00
29045;BME280;16133;49.486;12.176;2023-07-08T04:30:30;97746.44;;;11.91;100.00
29045;BME280;16133;49.486;12.176;2023-07-08T04:32:56;97748.66;;;12.03;100.00
29045;BME280;16133;49.486;12.176;2023-07-08T04:35:21;97747.38;;;12.13;100.00
29045;BME280;16133;49.486;12.176;2023-07-08T04:37:46;97750.25;;;12.26;100.00
29045;BME280;16133;49.486;12.176;2023-07-08T04:40:17;97748.78;;;12.38;100.00
29045;BME280;16133;49.486;12.176;2023-07-08T04:42:44;97748.16;;;12.51;100.00
29045;BME280;16133;49.486;12.176;2023-07-08T04:45:10;97763.28;;;12.65;100.00
29045;BME280;16133;49.486;12.176;2023-07-08T04:47:35;97759.59;;;12.81;100.00
29045;BME280;16133;49.486;12.176;2023-07-08T04:50:01;97766.09;;;13.08;100.00
29045;BME280;16133;49.486;12.176;2023-07-08T04:52:26;97762.69;;;13.64;100.00
29045;BME280;16133;49.486;12.176;2023-07-08T04:54:51;97757.72;;;14.59;100.00
29045;BME280;16133;49.486;12.176;2023-07-08T04:57:17;97764.75;;;15.55;100.00
29045;BME280;16133;49.486;12.176;2023-07-08T04:59:42;97754.91;;;16.21;98.62
29045;BME280;16133;49.486;12.176;2023-07-08T05:02:07;97750.09;;;16.83;93.68
29045;BME280;16133;49.486;12.176;2023-07-08T05:04:33;97753.44;;;17.29;88.71
29045;BME280;16133;49.486;12.176;2023-07-08T05:06:58;97745.25;;;17.93;82.57
29045;BME280;16133;49.486;12.176;2023-07-08T05:09:24;97749.03;;;18.78;78.00
29045;BME280;16133;49.486;12.176;2023-07-08T05:11:51;97752.16;;;19.78;72.87
29045;BME280;16133;49.486;12.176;2023-07-08T05:14:17;97750.81;;;20.75;66.80
29045;BME280;16133;49.486;12.176;2023-07-08T05:16:42;97745.75;;;21.70;62.51
29045;BME280;16133;49.486;12.176;2023-07-08T05:19:08;97743.00;;;22.43;59.47
29045;BME280;16133;49.486;12.176;2023-07-08T05:21:34;97741.34;;;23.14;56.77
29045;BME280;16133;49.486;12.176;2023-07-08T05:24:04;97744.78;;;23.74;54.81
29045;BME280;16133;49.486;12.176;2023-07-08T05:26:30;97745.06;;;24.32;52.80
29045;BME280;16133;49.486;12.176;2023-07-08T05:28:55;97747.69;;;24.95;50.23
29045;BME280;16133;49.486;12.176;2023-07-08T05:31:21;97747.09;;;25.40;49.01
29045;BME280;16133;49.486;12.176;2023-07-08T05:33:46;97753.81;;;25.90;47.86
29045;BME280;16133;49.486;12.176;2023-07-08T05:36:12;97754.69;;;26.36;46.69
29045;BME280;16133;49.486;12.176;2023-07-08T05:38:37;97749.19;;;26.76;45.40
29045;BME280;16133;49.486;12.176;2023-07-08T05:41:03;97755.72;;;26.95;44.98
29045;BME280;16133;49.486;12.176;2023-07-08T05:43:28;97759.78;;;27.13;43.77
29045;BME280;16133;49.486;12.176;2023-07-08T05:46:00;97753.97;;;27.35;44.07
29045;BME280;16133;49.486;12.176;2023-07-08T05:48:26;97750.69;;;27.48;42.27
29045;BME280;16133;49.486;12.176;2023-07-08T05:50:52;97758.00;;;27.52;42.34
29045;BME280;16133;49.486;12.176;2023-07-08T05:53:19;97756.66;;;27.55;42.10
29045;BME280;16133;49.486;12.176;2023-07-08T05:55:45;97765.09;;;27.53;42.29
29045;BME280;16133;49.486;12.176;2023-07-08T05:58:10;97767.25;;;27.62;41.55
29045;BME280;16133;49.486;12.176;2023-07-08T06:00:40;97770.78;;;27.67;41.63
29045;BME280;16133;49.486;12.176;2023-07-08T06:03:05;97763.47;;;27.52;41.89
29045;BME280;16133;49.486;12.176;2023-07-08T06:05:31;97765.34;;;27.62;41.95
29045;BME280;16133;49.486;12.176;2023-07-08T06:07:58;97768.38;;;27.55;41.20
29045;BME280;16133;49.486;12.176;2023-07-08T06:10:23;97762.91;;;27.55;41.56
29045;BME280;16133;49.486;12.176;2023-07-08T06:12:48;97764.50;;;27.67;41.59
29045;BME280;16133;49.486;12.176;2023-07-08T06:15:14;97765.84;;;27.69;40.42
29045;BME280;16133;49.486;12.176;2023-07-08T06:17:39;97768.38;;;27.55;40.63
29045;BME280;16133;49.486;12.176;2023-07-08T06:20:05;97770.56;;;27.53;41.44
29045;BME280;16133;49.486;12.176;2023-07-08T06:22:31;97766.53;;;27.26;41.08
29045;BME280;16133;49.486;12.176;2023-07-08T06:24:56;97770.91;;;27.27;40.51
29045;BME280;16133;49.486;12.176;2023-07-08T06:27:21;97763.03;;;27.20;40.51
29045;BME280;16133;49.486;12.176;2023-07-08T06:29:47;97761.44;;;26.99;41.17
29045;BME280;16133;49.486;12.176;2023-07-08T06:32:12;97760.38;;;26.70;41.60
29045;BME280;16133;49.486;12.176;2023-07-08T06:34:38;97756.88;;;26.44;41.46
29045;BME280;16133;49.486;12.176;2023-07-08T06:37:03;97756.03;;;26.23;41.60
29045;BME280;16133;49.486;12.176;2023-07-08T06:39:29;97766.25;;;25.71;42.84
29045;BME280;16133;49.486;12.176;2023-07-08T06:41:54;97772.50;;;25.09;43.83
29045;BME280;16133;49.486;12.176;2023-07-08T06:44:19;97773.38;;;24.83;45.48
29045;BME280;16133;49.486;12.176;2023-07-08T06:46:45;97767.28;;;24.65;45.50
29045;BME280;16133;49.486;12.176;2023-07-08T06:49:10;97764.03;;;24.32;46.24
29045;BME280;16133;49.486;12.176;2023-07-08T06:51:37;97755.38;;;24.08;46.43
29045;BME280;16133;49.486;12.176;2023-07-08T06:54:02;97754.84;;;23.79;48.21
29045;BME280;16133;49.486;12.176;2023-07-08T06:56:30;97752.59;;;23.71;47.98
29045;BME280;16133;49.486;12.176;2023-07-08T06:58:56;97753.13;;;23.68;49.07
29045;BME280;16133;49.486;12.176;2023-07-08T07:01:21;97744.69;;;23.64;48.95
29045;BME280;16133;49.486;12.176;2023-07-08T07:03:47;97747.41;;;23.69;49.33
29045;BME280;16133;49.486;12.176;2023-07-08T07:06:12;97740.56;;;23.62;50.18
29045;BME280;16133;49.486;12.176;2023-07-08T07:08:38;97736.34;;;23.71;49.55
29045;BME280;16133;49.486;12.176;2023-07-08T07:11:03;97736.09;;;23.72;49.59
29045;BME280;16133;49.486;12.176;2023-07-08T07:13:28;97733.13;;;23.74;50.17
29045;BME280;16133;49.486;12.176;2023-07-08T07:15:54;97732.09;;;23.80;49.90
29045;BME280;16133;49.486;12.176;2023-07-08T07:18:19;97727.53;;;23.86;49.59
29045;BME280;16133;49.486;12.176;2023-07-08T07:20:49;97732.44;;;23.89;49.25
29045;BME280;16133;49.486;12.176;2023-07-08T07:23:16;97728.88;;;23.83;49.37
29045;BME280;16133;49.486;12.176;2023-07-08T07:25:42;97726.78;;;23.90;50.88
29045;BME280;16133;49.486;12.176;2023-07-08T07:28:07;97731.16;;;23.96;49.27
29045;BME280;16133;49.486;12.176;2023-07-08T07:30:32;97728.28;;;24.08;49.46
29045;BME280;16133;49.486;12.176;2023-07-08T07:32:59;97739.56;;;24.21;50.00
29045;BME280;16133;49.486;12.176;2023-07-08T07:35:25;97725.31;;;24.36;49.37
29045;BME280;16133;49.486;12.176;2023-07-08T07:37:51;97724.00;;;24.44;48.85
29045;BME280;16133;49.486;12.176;2023-07-08T07:40:16;97719.66;;;24.43;48.97
29045;BME280;16133;49.486;12.176;2023-07-08T07:42:43;97725.47;;;24.56;48.54
29045;BME280;16133;49.486;12.176;2023-07-08T07:45:09;97730.66;;;24.63;47.98
29045;BME280;16133;49.486;12.176;2023-07-08T07:47:35;97718.47;;;24.70;47.90
29045;BME280;16133;49.486;12.176;2023-07-08T07:50:01;97707.91;;;24.74;47.64
29045;BME280;16133;49.486;12.176;2023-07-08T07:52:27;97716.19;;;24.89;48.02
29045;BME280;16133;49.486;12.176;2023-07-08T07:54:53;97712.47;;;25.05;47.27
29045;BME280;16133;49.486;12.176;2023-07-08T07:57:19;97714.13;;;25.16;46.44
29045;BME280;16133;49.486;12.176;2023-07-08T07:59:45;97713.06;;;25.22;46.66
29045;BME280;16133;49.486;12.176;2023-07-08T08:02:12;97721.00;;;25.29;46.16
29045;BME280;16133;49.486;12.176;2023-07-08T08:04:38;97722.09;;;25.33;46.34
29045;BME280;16133;49.486;12.176;2023-07-08T08:07:03;97731.66;;;25.51;46.40
29045;BME280;16133;49.486;12.176;2023-07-08T08:09:29;97719.75;;;25.62;43.39
29045;BME280;16133;49.486;12.176;2023-07-08T08:11:54;97717.63;;;25.79;39.81
29045;BME280;16133;49.486;12.176;2023-07-08T08:14:20;97716.56;;;26.00;37.41
29045;BME280;16133;49.486;12.176;2023-07-08T08:16:45;97710.03;;;26.16;36.04
29045;BME280;16133;49.486;12.176;2023-07-08T08:19:11;97713.31;;;26.34;36.47
29045;BME280;16133;49.486;12.176;2023-07-08T08:21:36;97709.81;;;26.33;35.16
29045;BME280;16133;49.486;12.176;2023-07-08T08:24:02;97708.69;;;26.39;36.11
29045;BME280;16133;49.486;12.176;2023-07-08T08:26:27;97716.03;;;26.49;36.00
29045;BME280;16133;49.486;12.176;2023-07-08T08:28:57;97708.41;;;26.51;36.72
29045;BME280;16133;49.486;12.176;2023-07-08T08:31:22;97714.16;;;26.44;35.26
29045;BME280;16133;49.486;12.176;2023-07-08T08:33:47;97710.06;;;26.47;36.69
29045;BME280;16133;49.486;12.176;2023-07-08T08:36:13;97710.59;;;26.49;36.44
29045;BME280;16133;49.486;12.176;2023-07-08T08:38:38;97710.28;;;26.60;35.41
29045;BME280;16133;49.486;12.176;2023-07-08T08:41:18;97710.03;;;26.62;34.09
29045;BME280;16133;49.486;12.176;2023-07-08T08:43:45;97706.78;;;26.55;34.77
29045;BME280;16133;49.486;12.176;2023-07-08T08:49:25;97702.97;;;26.51;33.09
29045;BME280;16133;49.486;12.176;2023-07-08T08:51:53;97701.88;;;26.52;33.36
29045;BME280;16133;49.486;12.176;2023-07-08T08:54:19;97700.25;;;26.51;33.69
29045;BME280;16133;49.486;12.176;2023-07-08T08:56:50;97704.63;;;26.52;34.12
29045;BME280;16133;49.486;12.176;2023-07-08T08:59:26;97705.69;;;26.56;35.30
29045;BME280;16133;49.486;12.176;2023-07-08T09:01:55;97711.13;;;26.61;35.29
29045;BME280;16133;49.486;12.176;2023-07-08T09:04:32;97699.44;;;26.55;35.65
29045;BME280;16133;49.486;12.176;2023-07-08T09:07:08;97705.69;;;26.56;36.27
29045;BME280;16133;49.486;12.176;2023-07-08T09:12:05;97702.69;;;26.57;35.30
29045;BME280;16133;49.486;12.176;2023-07-08T09:14:34;97679.56;;;26.50;34.29
29045;BME280;16133;49.486;12.176;2023-07-08T09:17:29;97694.22;;;26.69;33.24
29045;BME280;16133;49.486;12.176;2023-07-08T09:27:41;97689.84;;;26.78;33.93
29045;BME280;16133;49.486;12.176;2023-07-08T09:30:17;97702.38;;;26.84;32.12
29045;BME280;16133;49.486;12.176;2023-07-08T09:32:43;97689.34;;;26.66;31.39
29045;BME280;16133;49.486;12.176;2023-07-08T09:35:11;97691.50;;;26.64;31.40
29045;BME280;16133;49.486;12.176;2023-07-08T09:37:45;97704.59;;;26.67;30.89
29045;BME280;16133;49.486;12.176;2023-07-08T09:40:32;97700.53;;;26.59;31.16
29045;BME280;16133;49.486;12.176;2023-07-08T09:43:16;97698.31;;;26.61;33.29
29045;BME280;16133;49.486;12.176;2023-07-08T09:45:46;97697.50;;;26.61;32.23
29045;BME280;16133;49.486;12.176;2023-07-08T09:48:18;97699.41;;;26.66;33.97
29045;BME280;16133;49.486;12.176;2023-07-08T09:50:47;97694.22;;;26.64;32.76
29045;BME280;16133;49.486;12.176;2023-07-08T09:53:14;97687.44;;;26.67;32.73
29045;BME280;16133;49.486;12.176;2023-07-08T09:55:39;97687.69;;;26.65;32.95
29045;BME280;16133;49.486;12.176;2023-07-08T09:58:05;97693.41;;;26.69;31.61
29045;BME280;16133;49.486;12.176;2023-07-08T10:00:41;97692.31;;;26.70;33.53
29045;BME280;16133;49.486;12.176;2023-07-08T10:03:34;97692.56;;;26.68;32.00
29045;BME280;16133;49.486;12.176;2023-07-08T10:06:04;97691.78;;;26.68;32.01
29045;BME280;16133;49.486;12.176;2023-07-08T10:08:40;97686.59;;;26.71;32.56
29045;BME280;16133;49.486;12.176;2023-07-08T10:11:31;97694.22;;;26.89;33.00
29045;BME280;16133;49.486;12.176;2023-07-08T10:14:07;97692.56;;;26.88;33.83
29045;BME280;16133;49.486;12.176;2023-07-08T10:16:34;97693.38;;;26.89;33.38
29045;BME280;16133;49.486;12.176;2023-07-08T10:19:00;97690.91;;;26.92;31.89
29045;BME280;16133;49.486;12.176;2023-07-08T10:24:07;97689.78;;;26.98;31.53
29045;BME280;16133;49.486;12.176;2023-07-08T10:26:41;97689.78;;;27.03;31.09
29045;BME280;16133;49.486;12.176;2023-07-08T10:29:31;97690.88;;;27.02;31.80
29045;BME280;16133;49.486;12.176;2023-07-08T10:32:15;97693.34;;;27.04;33.69
29045;BME280;16133;49.486;12.176;2023-07-08T10:34:54;97693.56;;;27.13;31.22
29045;BME280;16133;49.486;12.176;2023-07-08T10:37:37;97695.75;;;27.10;29.99
29045;BME280;16133;49.486;12.176;2023-07-08T10:45:53;97703.09;;;27.10;30.90
29045;BME280;16133;49.486;12.176;2023-07-08T10:53:49;97704.44;;;27.23;31.07
29045;BME280;16133;49.486;12.176;2023-07-08T10:56:36;97702.78;;;27.22;29.08
29045;BME280;16133;49.486;12.176;2023-07-08T10:59:28;97694.59;;;27.27;29.53
29045;BME280;16133;49.486;12.176;2023-07-08T11:07:41;97699.78;;;27.23;29.79
29045;BME280;16133;49.486;12.176;2023-07-08T11:17:45;97697.34;;;27.22;29.68
29045;BME280;16133;49.486;12.176;2023-07-08T11:20:37;97692.97;;;27.26;28.67
29045;BME280;16133;49.486;12.176;2023-07-08T11:23:29;97694.03;;;27.30;30.79
29045;BME280;16133;49.486;12.176;2023-07-08T11:27:05;97696.72;;;27.40;31.86
29045;BME280;16133;49.486;12.176;2023-07-08T11:29:45;97696.69;;;27.50;30.92
29045;BME280;16133;49.486;12.176;2023-07-08T11:32:19;97693.94;;;27.55;32.45
29045;BME280;16133;49.486;12.176;2023-07-08T11:34:47;97693.38;;;27.58;31.33
29045;BME280;16133;49.486;12.176;2023-07-08T11:37:14;97688.19;;;27.56;31.62
29045;BME280;16133;49.486;12.176;2023-07-08T11:39:42;97684.88;;;27.65;29.93
29045;BME280;16133;49.486;12.176;2023-07-08T11:42:25;97683.53;;;27.62;29.06
29045;BME280;16133;49.486;12.176;2023-07-08T11:44:56;97674.53;;;27.62;29.88
29045;BME280;16133;49.486;12.176;2023-07-08T11:47:42;97681.06;;;27.66;30.11
29045;BME280;16133;49.486;12.176;2023-07-08T11:50:46;97668.72;;;27.78;30.74
29045;BME280;16133;49.486;12.176;2023-07-08T11:53:14;97668.72;;;27.78;29.01
29045;BME280;16133;49.486;12.176;2023-07-08T11:56:01;97667.69;;;27.69;28.90
29045;BME280;16133;49.486;12.176;2023-07-08T11:58:29;97662.16;;;27.79;28.26
29045;BME280;16133;49.486;12.176;2023-07-08T12:01:04;97666.03;;;27.73;29.34
29045;BME280;16133;49.486;12.176;2023-07-08T12:03:47;97663.72;;;27.90;30.08
29045;BME280;16133;49.486;12.176;2023-07-08T12:08:59;97656.63;;;28.52;27.57
29045;BME280;16133;49.486;12.176;2023-07-08T12:11:34;97650.00;;;28.87;26.60
29045;BME280;16133;49.486;12.176;2023-07-08T12:14:01;97648.06;;;29.11;27.63
29045;BME280;16133;49.486;12.176;2023-07-08T12:16:29;97656.72;;;29.61;27.14
29045;BME280;16133;49.486;12.176;2023-07-08T12:18:55;97651.72;;;30.19;25.53
29045;BME280;16133;49.486;12.176;2023-07-08T12:21:23;97652.25;;;30.80;25.67
29045;BME280;16133;49.486;12.176;2023-07-08T12:23:50;97649.38;;;31.40;26.99
29045;BME280;16133;49.486;12.176;2023-07-08T12:26:16;97645.50;;;31.91;26.01
29045;BME280;16133;49.486;12.176;2023-07-08T12:28:42;97649.25;;;32.17;26.52
29045;BME280;16133;49.486;12.176;2023-07-08T12:31:19;97657.97;;;32.41;25.16
29045;BME280;16133;49.486;12.176;2023-07-08T12:33:46;97646.59;;;32.56;24.81
29045;BME280;16133;49.486;12.176;2023-07-08T12:38:44;97653.91;;;32.92;26.63
29045;BME280;16133;49.486;12.176;2023-07-08T12:41:31;97649.47;;;33.22;27.41
29045;BME280;16133;49.486;12.176;2023-07-08T12:43:58;97650.63;;;33.46;26.75
29045;BME280;16133;49.486;12.176;2023-07-08T12:46:25;97633.84;;;33.56;26.96
29045;BME280;16133;49.486;12.176;2023-07-08T12:48:59;97641.97;;;33.96;25.92
29045;BME280;16133;49.486;12.176;2023-07-08T12:51:43;97642.25;;;34.37;24.94
29045;BME280;16133;49.486;12.176;2023-07-08T12:54:10;97632.28;;;34.71;23.15
29045;BME280;16133;49.486;12.176;2023-07-08T12:56:46;97641.28;;;34.88;22.78
29045;BME280;16133;49.486;12.176;2023-07-08T12:59:17;97632.75;;;35.11;23.96
29045;BME280;16133;49.486;12.176;2023-07-08T13:01:48;97634.41;;;35.32;22.98
29045;BME280;16133;49.486;12.176;2023-07-08T13:04:14;97644.06;;;35.26;23.16
29045;BME280;16133;49.486;12.176;2023-07-08T13:06:40;97631.28;;;35.13;22.98
29045;BME280;16133;49.486;12.176;2023-07-08T13:09:31;97631.53;;;34.91;22.79
29045;BME280;16133;49.486;12.176;2023-07-08T13:11:54;97634.41;;;34.56;23.37
29045;BME280;16133;49.486;12.176;2023-07-08T13:14:22;97633.53;;;34.18;23.51
29045;BME280;16133;49.486;12.176;2023-07-08T13:16:47;97630.63;;;33.72;23.49
29045;BME280;16133;49.486;12.176;2023-07-08T13:19:14;97621.34;;;32.85;24.34
29045;BME280;16133;49.486;12.176;2023-07-08T13:21:42;97626.19;;;32.49;25.11
29045;BME280;16133;49.486;12.176;2023-07-08T13:24:11;97630.19;;;32.12;25.14
29045;BME280;16133;49.486;12.176;2023-07-08T13:26:36;97625.53;;;31.76;26.46
29045;BME280;16133;49.486;12.176;2023-07-08T13:29:14;97619.22;;;31.40;25.66
29045;BME280;16133;49.486;12.176;2023-07-08T13:31:55;97619.38;;;31.08;26.22
29045;BME280;16133;49.486;12.176;2023-07-08T13:34:24;97618.13;;;30.87;26.95
29045;BME280;16133;49.486;12.176;2023-07-08T13:36:51;97619.69;;;30.65;25.62
29045;BME280;16133;49.486;12.176;2023-07-08T13:39:22;97621.47;;;30.56;26.11
29045;BME280;16133;49.486;12.176;2023-07-08T13:41:49;97613.25;;;30.43;25.72
29045;BME280;16133;49.486;12.176;2023-07-08T13:44:15;97611.28;;;30.29;25.44
29045;BME280;16133;49.486;12.176;2023-07-08T13:46:49;97606.41;;;30.26;26.99